• Join FlightAware (Why Join?)
  • Login
  • US Flag 
06:49PM EDT


 

Airport Tracker/Info


-or-


 

Live Flight TrackerFlight Track Log ✈ BCY5213 ✈ 28-Mar-2014 ✈ EGLC / LCY - ELLX / LUX

Flight Track Log - Related Links

Times and Time Zones

All times are in EDT time to prevent confusion due to time zone crossing. See the BCY5213 flight status page for this flight to view local times or setup timezone preferences in your user account.

Time Position Orientation Groundspeed Altitude Reporting Facility
EDT Latitude Longitude Course Direction KTS MPH feet Rate Location/Type
05:48AM 51.5031 0.0898 78° East 174 200 1,000  Level FlightAware UK
05:48AM 51.5055 0.1075 78° East 174 200 1,600 1,980 Climbing FlightAware UK
05:48AM 51.5209 0.1310 44° Northeast 104 120 2,600 1,980 Climbing FlightAware UK
05:49AM 51.5305 0.1448 42° Northeast 174 200 3,200 1,980 Climbing FlightAware UK
05:49AM 51.5435 0.1536 23° Northeast 174 200 3,800 1,320 Climbing FlightAware UK
05:49AM 51.5531 0.1707 48° Northeast 174 200 4,000 300 Climbing FlightAware UK
05:50AM 51.5566 0.1945 76° East 174 200 4,000 -360 Level FlightAware UK
05:50AM 51.5516 0.2190 108° East 174 200 3,800 120 Descending FlightAware UK
05:50AM 51.5466 0.2447 107° East 174 200 4,100 1,800 Climbing FlightAware UK
05:51AM 51.5397 0.2770 109° East 130 150 5,100 2,100 Climbing FlightAware UK
05:51AM 51.5334 0.3088 108° East 130 150 5,800 960 Climbing FlightAware UK
05:51AM 51.5265 0.3416 109° East 130 150 5,900 60 Climbing FlightAware UK
05:52AM 51.5159 0.3846 112° Southeast 209 241 5,900  Level FlightAware UK
05:52AM 51.5075 0.4187 112° Southeast 261 300 5,900  Level FlightAware UK
05:53AM 51.5015 0.4444 110° East 174 200 5,900  Level FlightAware UK
05:53AM 51.4976 0.4715 103° East 174 200 5,900  Level FlightAware UK
05:53AM 51.4929 0.4984 105° East 174 200 5,900  Level FlightAware UK
05:53AM 51.4882 0.5256 106° East 174 200 5,900  Level FlightAware UK
05:54AM 51.4834 0.5531 106° East 174 200 5,900 480 Level FlightAware UK
05:55AM 51.4674 0.6437 106° East 209 241 6,600 720 Climbing FlightAware UK
05:55AM 51.4628 0.6707 105° East 174 200 6,900 660 Climbing FlightAware UK
05:55AM 51.4585 0.6978 104° East 174 200 7,000 120 Climbing FlightAware UK
05:56AM 51.4539 0.7254 105° East 174 200 7,000  Level FlightAware UK
05:56AM 51.4492 0.7531 105° East 174 200 7,000 1,140 Level FlightAware UK
05:56AM 51.4444 0.7808 106° East 174 200 7,700 1,800 Climbing FlightAware UK
05:57AM 51.4362 0.8338 104° East 169 194 8,700 1,200 Climbing FlightAware UK
05:58AM 51.4209 0.9489 102° East 201 231 10,000 780 Climbing FlightAware UK
05:59AM 51.4121 1.0063 104° East 261 300 10,200 1,080 Climbing FlightAware UK
05:59AM 51.4046 1.0623 102° East 179 206 11,300 1,440 Climbing FlightAware UK
06:00AM 51.3984 1.1084 102° East 202 232 11,800 1,140 Climbing FlightAware UK
06:00AM 51.3904 1.1637 103° East 174 200 12,600 1,080 Climbing FlightAware UK
06:01AM 51.3836 1.2103 103° East 209 241 13,000 360 Climbing FlightAware UK
06:02AM 51.3746 1.2675 104° East 261 300 13,000  Level FlightAware UK
06:02AM 51.3660 1.3247 103° East 261 300 13,000 180 Level FlightAware UK
06:03AM 51.3586 1.3728 104° East 209 241 13,200 1,200 Climbing FlightAware UK
06:03AM 51.3520 1.4192 103° East 209 241 14,200 1,560 Climbing FlightAware UK
06:04AM 51.3469 1.4641 100° East 209 241 14,800 1,200 Climbing FlightAware UK
06:04AM 51.3398 1.5264 100° East 223 257 15,700 1,200 Climbing FlightAware UK
06:05AM 51.3354 1.5792 98° East 174 200 16,400 1,080 Climbing FlightAware UK
06:06AM 51.3310 1.6327 97° East 174 200 17,000 960 Climbing FlightAware UK
06:06AM 51.3209 1.6741 111° Southeast 209 241 17,500 900 Climbing FlightAware UK
06:07AM 51.3083 1.7235 112° Southeast 174 200 18,000 840 Climbing FlightAware UK
06:08AM 51.2905 1.7987 111° Southeast 174 200 18,800 660 Climbing FlightAware UK
06:08AM 51.2776 1.8511 111° Southeast 174 200 19,000 120 Climbing FlightAware UK
06:09AM 51.2582 1.9254 113° Southeast 196 226 19,000  Level FlightAware UK
06:10AM 51.2433 1.9842 112° Southeast 261 300 19,000  Level FlightAware UK
06:10AM 51.2296 2.0445 110° East 261 300 19,000  Level FlightAware UK
06:11AM 51.2058 2.1579 109° East 237 273 19,000  Level FlightAware UK
06:12AM 51.1946 2.2094 109° East 209 241 19,000  Level FlightAware UK
06:12AM 51.1833 2.2616 109° East 209 241 19,000  Level FlightAware UK
06:13AM 51.1715 2.3131 110° East 209 241 19,000  Level FlightAware UK
06:13AM 51.1575 2.3752 110° East 261 300 19,000  Level FlightAware UK
06:14AM 51.1344 2.4799 109° East 261 300 19,000  Level FlightAware UK
06:15AM 51.1197 2.5425 111° Southeast 261 300 19,000  Level FlightAware UK
06:15AM 51.1075 2.5950 110° East 209 241 19,000  Level FlightAware UK
06:16AM 51.0842 2.6889 112° Southeast 232 267 19,000  Level FlightAware UK
06:17AM 51.0587 2.7931 111° Southeast 261 300 19,000  Level FlightAware UK
06:19AM 51.0129 2.9260 119° Southeast 261 300 19,000  Level FlightAware UK
06:21AM 50.9489 3.1083 119° Southeast 247 284 19,000  Level FlightAware UK
06:21AM 50.9302 3.1675 117° Southeast 261 300 19,000  Level FlightAware UK
06:22AM 50.9145 3.2173 117° Southeast 202 232 19,000  Level FlightAware UK
06:23AM 50.8886 3.2956 118° Southeast 261 300 19,000  Level FlightAware UK
06:23AM 50.8689 3.3539 118° Southeast 261 300 19,000  Level FlightAware UK
06:32AM 50.5729 4.1908 123° Southeast 252 290 19,000  Level FlightAware UK
06:32AM 50.5563 4.2388 118° Southeast 209 241 19,000  Level FlightAware UK
06:33AM 50.5391 4.2860 120° Southeast 209 241 19,000 -120 Level FlightAware UK
06:33AM 50.5216 4.3325 121° Southeast 209 241 18,900  Descending FlightAware UK
06:34AM 50.4931 4.3790 134° Southeast 261 300 19,000 60 Climbing FlightAware UK
06:35AM 50.4653 4.4258 133° Southeast 261 300 19,000  Level FlightAware UK
06:37AM 50.3966 4.5767 125° Southeast  Level Estimated
06:44AM 50.1464 5.1192 126° Southeast  Level Estimated
06:45AM 50.1104 5.1962 126° Southeast  Level Estimated
06:46AM 50.0744 5.2731 126° Southeast  Level Estimated
06:47AM 50.0383 5.3499 126° Southeast  Level Estimated
06:48AM 50.0022 5.4266 126° Southeast  Level Estimated
06:49AM 49.9661 5.5032 126° Southeast  Level Estimated
06:50AM 49.9299 5.5796 126° Southeast  Level Estimated
06:51AM 49.8936 5.6560 126° Southeast  Level Estimated
06:52AM 49.8573 5.7322 126° Southeast  Level Estimated
06:53AM 49.8209 5.8083 126° Southeast  Level Estimated
06:54AM 49.7845 5.8843 127° Southeast  Level Estimated
06:55AM 49.7481 5.9602 127° Southeast  Level Estimated
06:56AM 49.7115 6.0360 127° Southeast  Level Estimated
06:57AM 49.6750 6.1117 127° Southeast  Level Estimated
06:58AM 49.6384 6.1872 127° Southeast  Level Estimated
06:59AM 49.6266 6.2115 127° Southeast  Level Estimated
07:00AM 49.6266 6.2115 North  Level Estimated
07:01AM 49.6266 6.2115 North  Level Estimated
07:02AM 49.6266 6.2115 North  Level Estimated
07:03AM 49.6266 6.2115 North  Level Estimated
07:04AM 49.6266 6.2115 North  Level Estimated
07:05AM 49.6266 6.2115 North  Level Estimated
07:06AM 49.6266 6.2115 North  Level Estimated
07:07AM 49.6266 6.2115 North  Level Estimated